UAL450 KASE-KTEX
Flight info
| Callsign | UAL450 |
|---|---|
| Flight time | 0h 28m |
| Altitude | 20000 |
| Route | LINDZ1 LINDZ SLOLM MTJ ETL |
| Aircraft | DH8D/M-SDE2E3FGRY/H |
Departure
| Time | 2026-04-30 21:41 |
|---|---|
| Airport | Aspen-Pitkin County Airport (Sardy Field) (KASE) |
Arrival
| Time | 2026-04-30 22:09 |
|---|---|
| Airport | Telluride Regional Airport (KTEX) |
| Time | Latitude | Longitude | Altitude | Speed | Heading |
|---|---|---|---|---|---|
| 2026-04-30 21:21 | 39.22027 | -106.86555 | 7828 ft | 0 kts | 71° |
| 2026-04-30 21:32 | 39.22026 | -106.86559 | 7828 ft | 2 kts | 71° |
| 2026-04-30 21:33 | 39.22020 | -106.86582 | 7828 ft | 3 kts | 71° |
| 2026-04-30 21:33 | 39.22034 | -106.86626 | 7828 ft | 3 kts | 154° |
| 2026-04-30 21:33 | 39.22044 | -106.86631 | 7828 ft | 0 kts | 156° |
| 2026-04-30 21:37 | 39.22041 | -106.86632 | 7828 ft | 0 kts | 183° |
| 2026-04-30 21:37 | 39.22038 | -106.86635 | 7828 ft | 1 kts | 225° |
| 2026-04-30 21:37 | 39.22038 | -106.86637 | 7828 ft | 0 kts | 237° |
| 2026-04-30 21:37 | 39.22037 | -106.86638 | 7828 ft | 0 kts | 237° |
| 2026-04-30 21:38 | 39.22037 | -106.86639 | 7828 ft | 1 kts | 238° |
| 2026-04-30 21:38 | 39.22028 | -106.86661 | 7828 ft | 5 kts | 243° |
| 2026-04-30 21:38 | 39.22011 | -106.86707 | 7828 ft | 3 kts | 244° |
| 2026-04-30 21:38 | 39.22011 | -106.86728 | 7828 ft | 2 kts | 332° |
| 2026-04-30 21:39 | 39.22010 | -106.86727 | 7828 ft | 0 kts | 335° |
| 2026-04-30 21:39 | 39.22078 | -106.86767 | 7828 ft | 31 kts | 336° |
| 2026-04-30 21:39 | 39.22436 | -106.86943 | 7828 ft | 78 kts | 336° |
| 2026-04-30 21:40 | 39.23062 | -106.87251 | 7828 ft | 118 kts | 342° |
| 2026-04-30 21:40 | 39.23947 | -106.87701 | 7743 ft | 158 kts | 341° |
| 2026-04-30 21:40 | 39.25028 | -106.88398 | 7751 ft | 184 kts | 334° |
| 2026-04-30 21:40 | 39.26194 | -106.89067 | 8309 ft | 183 kts | 334° |
| 2026-04-30 21:41 | 39.27456 | -106.89537 | 8778 ft | 187 kts | 348° |
| 2026-04-30 21:41 | 39.28800 | -106.89693 | 9227 ft | 193 kts | 353° |
| 2026-04-30 21:41 | 39.30076 | -106.90257 | 9724 ft | 189 kts | 319° |
| 2026-04-30 21:41 | 39.30838 | -106.91586 | 10379 ft | 178 kts | 289° |
| 2026-04-30 21:42 | 39.31190 | -106.93141 | 10980 ft | 176 kts | 281° |
| 2026-04-30 21:42 | 39.31459 | -106.94722 | 11562 ft | 177 kts | 280° |
| 2026-04-30 21:42 | 39.31728 | -106.96323 | 12114 ft | 178 kts | 281° |
| 2026-04-30 21:42 | 39.31990 | -106.97925 | 12624 ft | 179 kts | 281° |
| 2026-04-30 21:43 | 39.32244 | -106.99546 | 13098 ft | 181 kts | 281° |
| 2026-04-30 21:43 | 39.32494 | -107.01184 | 13564 ft | 183 kts | 281° |
| 2026-04-30 21:43 | 39.32745 | -107.02849 | 14020 ft | 184 kts | 281° |
| 2026-04-30 21:43 | 39.32987 | -107.04466 | 14451 ft | 186 kts | 281° |
| 2026-04-30 21:44 | 39.33242 | -107.06141 | 14868 ft | 187 kts | 283° |
| 2026-04-30 21:44 | 39.33719 | -107.07736 | 15284 ft | 188 kts | 301° |
| 2026-04-30 21:44 | 39.34497 | -107.09136 | 15699 ft | 189 kts | 309° |
| 2026-04-30 21:44 | 39.35346 | -107.10431 | 16086 ft | 190 kts | 309° |
| 2026-04-30 21:45 | 39.36223 | -107.11753 | 16467 ft | 195 kts | 308° |
| 2026-04-30 21:45 | 39.37126 | -107.13112 | 16722 ft | 203 kts | 310° |
| 2026-04-30 21:45 | 39.37880 | -107.14538 | 16950 ft | 210 kts | 295° |
| 2026-04-30 21:46 | 39.38071 | -107.15611 | 17044 ft | 186 kts | 267° |
| 2026-04-30 21:46 | 39.37714 | -107.17280 | 17347 ft | 199 kts | 241° |
| 2026-04-30 21:46 | 39.36811 | -107.18558 | 17614 ft | 208 kts | 220° |
| 2026-04-30 21:46 | 39.35569 | -107.19623 | 17880 ft | 217 kts | 212° |
| 2026-04-30 21:47 | 39.34277 | -107.20654 | 18136 ft | 226 kts | 214° |
| 2026-04-30 21:47 | 39.32927 | -107.21766 | 18424 ft | 231 kts | 214° |
| 2026-04-30 21:47 | 39.31570 | -107.22895 | 18812 ft | 231 kts | 215° |
| 2026-04-30 21:47 | 39.30186 | -107.24052 | 19178 ft | 233 kts | 214° |
| 2026-04-30 21:48 | 39.28810 | -107.25189 | 19520 ft | 234 kts | 216° |
| 2026-04-30 21:48 | 39.27413 | -107.26350 | 19872 ft | 236 kts | 216° |
| 2026-04-30 21:48 | 39.25998 | -107.27530 | 19993 ft | 248 kts | 216° |
| 2026-04-30 21:48 | 39.24498 | -107.28788 | 20048 ft | 261 kts | 217° |
| 2026-04-30 21:49 | 39.22938 | -107.30087 | 20066 ft | 274 kts | 216° |
| 2026-04-30 21:49 | 39.21303 | -107.31461 | 20064 ft | 285 kts | 217° |
| 2026-04-30 21:49 | 39.19618 | -107.32873 | 20073 ft | 294 kts | 217° |
| 2026-04-30 21:49 | 39.17882 | -107.34331 | 20074 ft | 302 kts | 215° |
| 2026-04-30 21:50 | 39.16118 | -107.35805 | 20070 ft | 307 kts | 215° |
| 2026-04-30 21:50 | 39.14301 | -107.37332 | 20037 ft | 315 kts | 214° |
| 2026-04-30 21:50 | 39.12466 | -107.38872 | 20049 ft | 319 kts | 213° |
| 2026-04-30 21:50 | 39.10592 | -107.40435 | 20063 ft | 323 kts | 217° |
| 2026-04-30 21:51 | 39.08697 | -107.42020 | 20020 ft | 328 kts | 214° |
| 2026-04-30 21:51 | 39.06777 | -107.43617 | 20041 ft | 331 kts | 216° |
| 2026-04-30 21:51 | 39.04839 | -107.45237 | 20023 ft | 334 kts | 216° |
| 2026-04-30 21:51 | 39.02883 | -107.46862 | 20025 ft | 337 kts | 216° |
| 2026-04-30 21:52 | 39.00932 | -107.48484 | 20008 ft | 338 kts | 215° |
| 2026-04-30 21:52 | 38.98966 | -107.50120 | 20004 ft | 339 kts | 215° |
| 2026-04-30 21:52 | 38.96978 | -107.51779 | 20001 ft | 341 kts | 216° |
| 2026-04-30 21:52 | 38.95007 | -107.53414 | 20007 ft | 343 kts | 216° |
| 2026-04-30 21:53 | 38.93041 | -107.55043 | 19975 ft | 342 kts | 216° |
| 2026-04-30 21:53 | 38.91057 | -107.56693 | 20006 ft | 343 kts | 215° |
| 2026-04-30 21:53 | 38.89047 | -107.58358 | 19990 ft | 344 kts | 215° |
| 2026-04-30 21:53 | 38.87028 | -107.60022 | 19983 ft | 344 kts | 215° |
| 2026-04-30 21:54 | 38.85018 | -107.61684 | 19980 ft | 345 kts | 215° |
| 2026-04-30 21:54 | 38.83015 | -107.63337 | 19988 ft | 345 kts | 215° |
| 2026-04-30 21:54 | 38.80987 | -107.65011 | 19989 ft | 345 kts | 215° |
| 2026-04-30 21:54 | 38.79001 | -107.66649 | 19988 ft | 346 kts | 215° |
| 2026-04-30 21:55 | 38.76987 | -107.68309 | 19984 ft | 346 kts | 215° |
| 2026-04-30 21:55 | 38.75007 | -107.69940 | 19968 ft | 346 kts | 215° |
| 2026-04-30 21:55 | 38.72979 | -107.71610 | 19960 ft | 347 kts | 215° |
| 2026-04-30 21:55 | 38.70980 | -107.73257 | 19955 ft | 347 kts | 215° |
| 2026-04-30 21:56 | 38.68956 | -107.74925 | 19952 ft | 347 kts | 215° |
| 2026-04-30 21:56 | 38.66905 | -107.76608 | 19951 ft | 347 kts | 215° |
| 2026-04-30 21:56 | 38.64854 | -107.78291 | 19951 ft | 347 kts | 215° |
| 2026-04-30 21:56 | 38.62844 | -107.79938 | 20008 ft | 345 kts | 215° |
| 2026-04-30 21:57 | 38.60829 | -107.81590 | 20039 ft | 345 kts | 215° |
| 2026-04-30 21:57 | 38.58822 | -107.83234 | 20051 ft | 345 kts | 215° |
| 2026-04-30 21:57 | 38.56826 | -107.84867 | 20058 ft | 345 kts | 215° |
| 2026-04-30 21:57 | 38.54782 | -107.86537 | 20059 ft | 345 kts | 215° |
| 2026-04-30 21:58 | 38.52770 | -107.88182 | 20061 ft | 345 kts | 215° |
| 2026-04-30 21:58 | 38.50819 | -107.89780 | 20063 ft | 345 kts | 215° |
| 2026-04-30 21:58 | 38.48789 | -107.91419 | 20065 ft | 346 kts | 214° |
| 2026-04-30 21:58 | 38.46726 | -107.93037 | 19872 ft | 351 kts | 214° |
| 2026-04-30 21:59 | 38.44624 | -107.94655 | 19621 ft | 356 kts | 213° |
| 2026-04-30 21:59 | 38.42494 | -107.96288 | 19367 ft | 358 kts | 213° |
| 2026-04-30 21:59 | 38.40386 | -107.97910 | 19119 ft | 358 kts | 213° |
| 2026-04-30 22:00 | 38.36128 | -108.01203 | 18617 ft | 356 kts | 213° |
| 2026-04-30 22:00 | 38.31903 | -108.04473 | 18117 ft | 356 kts | 213° |
| 2026-04-30 22:00 | 38.29826 | -108.06076 | 17871 ft | 355 kts | 212° |
| 2026-04-30 22:01 | 38.27706 | -108.07707 | 17620 ft | 355 kts | 212° |
| 2026-04-30 22:01 | 38.25599 | -108.09323 | 17370 ft | 355 kts | 212° |
| 2026-04-30 22:01 | 38.23485 | -108.10942 | 17120 ft | 355 kts | 212° |
| 2026-04-30 22:01 | 38.21369 | -108.12563 | 16869 ft | 355 kts | 212° |
| 2026-04-30 22:02 | 38.19262 | -108.14178 | 16620 ft | 354 kts | 212° |
| 2026-04-30 22:02 | 38.17158 | -108.15792 | 16370 ft | 354 kts | 212° |
| 2026-04-30 22:02 | 38.15761 | -108.16865 | 16126 ft | 354 kts | 212° |
| 2026-04-30 22:02 | 38.12959 | -108.19016 | 15618 ft | 350 kts | 212° |
| 2026-04-30 22:03 | 38.10890 | -108.20602 | 15253 ft | 346 kts | 212° |
| 2026-04-30 22:03 | 38.09543 | -108.21631 | 15029 ft | 339 kts | 212° |
| 2026-04-30 22:03 | 38.06919 | -108.23630 | 14556 ft | 319 kts | 213° |
| 2026-04-30 22:03 | 38.05089 | -108.25032 | 14204 ft | 306 kts | 212° |
| 2026-04-30 22:04 | 38.03199 | -108.26107 | 13818 ft | 295 kts | 194° |
| 2026-04-30 22:04 | 38.01213 | -108.26129 | 13467 ft | 285 kts | 168° |
| 2026-04-30 22:04 | 37.98532 | -108.23864 | 12977 ft | 285 kts | 124° |
| 2026-04-30 22:05 | 37.97806 | -108.21563 | 12711 ft | 282 kts | 97° |
| 2026-04-30 22:05 | 37.97935 | -108.19139 | 12465 ft | 277 kts | 72° |
| 2026-04-30 22:05 | 37.98723 | -108.16101 | 12279 ft | 270 kts | 74° |
| 2026-04-30 22:05 | 37.99034 | -108.13814 | 12178 ft | 264 kts | 83° |
| 2026-04-30 22:06 | 37.99082 | -108.11496 | 12075 ft | 260 kts | 91° |
| 2026-04-30 22:06 | 37.98720 | -108.07730 | 11694 ft | 259 kts | 98° |
| 2026-04-30 22:06 | 37.98386 | -108.05531 | 11381 ft | 247 kts | 100° |
| 2026-04-30 22:07 | 37.98034 | -108.03520 | 11214 ft | 222 kts | 102° |
| 2026-04-30 22:07 | 37.97547 | -108.01204 | 10936 ft | 198 kts | 105° |
| 2026-04-30 22:07 | 37.97299 | -108.00073 | 10608 ft | 196 kts | 104° |
| 2026-04-30 22:07 | 37.96918 | -107.98499 | 10411 ft | 182 kts | 106° |
| 2026-04-30 22:08 | 37.96607 | -107.96984 | 10049 ft | 172 kts | 100° |
| 2026-04-30 22:08 | 37.96358 | -107.95508 | 9777 ft | 172 kts | 100° |
| 2026-04-30 22:08 | 37.96069 | -107.94029 | 9507 ft | 174 kts | 103° |
| 2026-04-30 22:08 | 37.95749 | -107.92548 | 9234 ft | 175 kts | 104° |
| 2026-04-30 22:09 | 37.95440 | -107.91111 | 9086 ft | 150 kts | 108° |
| 2026-04-30 22:09 | 37.95226 | -107.90194 | 9086 ft | 64 kts | 107° |
| 2026-04-30 22:09 | 37.95186 | -107.90048 | 9085 ft | 0 kts | 117° |
| 2026-04-30 22:09 | 37.95186 | -107.90047 | 9085 ft | 0 kts | 118° |